sensor_id;sensor_type;location;lat;lon;timestamp;P1;durP1;ratioP1;P2;durP2;ratioP2
2039;SDS011;1025;42.686;23.350;2024-02-26T00:01:59;18.07;;;13.13;;
2039;SDS011;1025;42.686;23.350;2024-02-26T00:04:26;15.07;;;13.57;;
2039;SDS011;1025;42.686;23.350;2024-02-26T00:06:54;16.23;;;14.00;;
2039;SDS011;1025;42.686;23.350;2024-02-26T00:09:23;17.43;;;12.93;;
2039;SDS011;1025;42.686;23.350;2024-02-26T00:11:49;15.70;;;13.70;;
2039;SDS011;1025;42.686;23.350;2024-02-26T00:14:16;20.30;;;14.40;;
2039;SDS011;1025;42.686;23.350;2024-02-26T00:16:43;17.47;;;15.33;;
2039;SDS011;1025;42.686;23.350;2024-02-26T00:19:10;19.50;;;15.63;;
2039;SDS011;1025;42.686;23.350;2024-02-26T00:21:39;22.77;;;17.07;;
2039;SDS011;1025;42.686;23.350;2024-02-26T00:24:09;18.63;;;15.67;;
2039;SDS011;1025;42.686;23.350;2024-02-26T00:26:36;17.87;;;14.30;;
2039;SDS011;1025;42.686;23.350;2024-02-26T00:29:02;18.70;;;16.60;;
2039;SDS011;1025;42.686;23.350;2024-02-26T00:31:31;17.47;;;15.77;;
2039;SDS011;1025;42.686;23.350;2024-02-26T00:33:58;18.53;;;16.73;;
2039;SDS011;1025;42.686;23.350;2024-02-26T00:36:26;22.50;;;18.37;;
2039;SDS011;1025;42.686;23.350;2024-02-26T00:38:53;22.70;;;19.50;;
2039;SDS011;1025;42.686;23.350;2024-02-26T00:41:21;23.53;;;19.90;;
2039;SDS011;1025;42.686;23.350;2024-02-26T00:43:50;22.53;;;19.97;;
2039;SDS011;1025;42.686;23.350;2024-02-26T00:46:17;22.17;;;19.70;;
2039;SDS011;1025;42.686;23.350;2024-02-26T00:48:43;28.40;;;21.03;;
2039;SDS011;1025;42.686;23.350;2024-02-26T00:51:12;26.40;;;20.70;;
2039;SDS011;1025;42.686;23.350;2024-02-26T00:53:40;21.83;;;19.17;;
2039;SDS011;1025;42.686;23.350;2024-02-26T00:56:07;21.77;;;19.43;;
2039;SDS011;1025;42.686;23.350;2024-02-26T00:58:35;22.80;;;19.93;;
2039;SDS011;1025;42.686;23.350;2024-02-26T01:01:03;24.70;;;22.03;;
2039;SDS011;1025;42.686;23.350;2024-02-26T01:03:30;27.30;;;21.20;;
2039;SDS011;1025;42.686;23.350;2024-02-26T01:05:56;26.47;;;22.37;;
2039;SDS011;1025;42.686;23.350;2024-02-26T01:08:25;25.93;;;23.17;;
2039;SDS011;1025;42.686;23.350;2024-02-26T01:10:51;27.17;;;22.97;;
2039;SDS011;1025;42.686;23.350;2024-02-26T01:13:18;27.30;;;22.57;;
2039;SDS011;1025;42.686;23.350;2024-02-26T01:15:48;35.50;;;23.47;;
2039;SDS011;1025;42.686;23.350;2024-02-26T01:18:14;24.00;;;21.57;;
2039;SDS011;1025;42.686;23.350;2024-02-26T01:20:41;28.70;;;24.60;;
2039;SDS011;1025;42.686;23.350;2024-02-26T01:23:09;26.13;;;23.27;;
2039;SDS011;1025;42.686;23.350;2024-02-26T01:25:39;32.40;;;23.90;;
2039;SDS011;1025;42.686;23.350;2024-02-26T01:28:05;28.70;;;25.60;;
2039;SDS011;1025;42.686;23.350;2024-02-26T01:30:32;30.27;;;26.83;;
2039;SDS011;1025;42.686;23.350;2024-02-26T01:33:02;29.30;;;24.40;;
2039;SDS011;1025;42.686;23.350;2024-02-26T01:35:28;32.27;;;26.33;;
2039;SDS011;1025;42.686;23.350;2024-02-26T01:37:55;27.30;;;24.50;;
2039;SDS011;1025;42.686;23.350;2024-02-26T01:40:24;29.00;;;25.13;;
2039;SDS011;1025;42.686;23.350;2024-02-26T01:42:52;27.20;;;24.20;;
2039;SDS011;1025;42.686;23.350;2024-02-26T01:45:20;28.40;;;25.40;;
2039;SDS011;1025;42.686;23.350;2024-02-26T01:47:51;27.53;;;24.33;;
2039;SDS011;1025;42.686;23.350;2024-02-26T01:50:19;28.53;;;22.97;;
2039;SDS011;1025;42.686;23.350;2024-02-26T01:52:47;30.03;;;24.23;;
2039;SDS011;1025;42.686;23.350;2024-02-26T01:55:16;30.40;;;24.53;;
2039;SDS011;1025;42.686;23.350;2024-02-26T01:57:43;30.50;;;24.23;;
2039;SDS011;1025;42.686;23.350;2024-02-26T02:00:11;29.60;;;25.90;;
2039;SDS011;1025;42.686;23.350;2024-02-26T02:02:40;34.27;;;27.60;;
2039;SDS011;1025;42.686;23.350;2024-02-26T02:05:09;28.73;;;25.73;;
2039;SDS011;1025;42.686;23.350;2024-02-26T02:07:38;35.23;;;26.90;;
2039;SDS011;1025;42.686;23.350;2024-02-26T02:10:07;26.87;;;24.00;;
2039;SDS011;1025;42.686;23.350;2024-02-26T02:12:36;32.87;;;25.17;;
2039;SDS011;1025;42.686;23.350;2024-02-26T02:15:05;30.90;;;25.80;;
2039;SDS011;1025;42.686;23.350;2024-02-26T02:17:32;32.50;;;25.20;;
2039;SDS011;1025;42.686;23.350;2024-02-26T02:20:00;31.60;;;25.63;;
2039;SDS011;1025;42.686;23.350;2024-02-26T02:22:29;31.77;;;25.57;;
2039;SDS011;1025;42.686;23.350;2024-02-26T02:24:57;33.40;;;26.20;;
2039;SDS011;1025;42.686;23.350;2024-02-26T02:27:26;30.90;;;26.07;;
2039;SDS011;1025;42.686;23.350;2024-02-26T02:29:55;34.83;;;28.00;;
2039;SDS011;1025;42.686;23.350;2024-02-26T02:32:22;29.00;;;25.50;;
2039;SDS011;1025;42.686;23.350;2024-02-26T02:34:50;36.00;;;27.97;;
2039;SDS011;1025;42.686;23.350;2024-02-26T02:37:16;38.00;;;27.40;;
2039;SDS011;1025;42.686;23.350;2024-02-26T02:39:44;33.17;;;26.00;;
2039;SDS011;1025;42.686;23.350;2024-02-26T02:42:11;37.00;;;27.10;;
2039;SDS011;1025;42.686;23.350;2024-02-26T02:44:39;34.27;;;30.67;;
2039;SDS011;1025;42.686;23.350;2024-02-26T02:47:08;30.80;;;26.77;;
2039;SDS011;1025;42.686;23.350;2024-02-26T02:49:35;35.60;;;27.30;;
2039;SDS011;1025;42.686;23.350;2024-02-26T02:52:01;33.07;;;26.73;;
2039;SDS011;1025;42.686;23.350;2024-02-26T02:54:30;29.27;;;24.27;;
2039;SDS011;1025;42.686;23.350;2024-02-26T02:56:58;30.33;;;25.10;;
2039;SDS011;1025;42.686;23.350;2024-02-26T02:59:24;32.70;;;24.63;;
2039;SDS011;1025;42.686;23.350;2024-02-26T03:01:53;34.67;;;25.83;;
2039;SDS011;1025;42.686;23.350;2024-02-26T03:04:22;29.33;;;26.40;;
2039;SDS011;1025;42.686;23.350;2024-02-26T03:06:49;32.37;;;26.60;;
2039;SDS011;1025;42.686;23.350;2024-02-26T03:09:15;35.80;;;25.83;;
2039;SDS011;1025;42.686;23.350;2024-02-26T03:11:44;30.03;;;26.73;;
2039;SDS011;1025;42.686;23.350;2024-02-26T03:14:12;28.20;;;25.20;;
2039;SDS011;1025;42.686;23.350;2024-02-26T03:16:38;30.77;;;26.77;;
2039;SDS011;1025;42.686;23.350;2024-02-26T03:19:07;30.03;;;25.00;;
2039;SDS011;1025;42.686;23.350;2024-02-26T03:21:33;32.77;;;25.80;;
2039;SDS011;1025;42.686;23.350;2024-02-26T03:24:00;32.27;;;24.57;;
2039;SDS011;1025;42.686;23.350;2024-02-26T03:26:27;29.87;;;23.20;;
2039;SDS011;1025;42.686;23.350;2024-02-26T03:28:53;32.23;;;25.53;;
2039;SDS011;1025;42.686;23.350;2024-02-26T03:31:21;28.60;;;25.30;;
2039;SDS011;1025;42.686;23.350;2024-02-26T03:33:50;30.40;;;26.67;;
2039;SDS011;1025;42.686;23.350;2024-02-26T03:36:16;38.07;;;25.67;;
2039;SDS011;1025;42.686;23.350;2024-02-26T03:38:43;31.50;;;25.43;;
2039;SDS011;1025;42.686;23.350;2024-02-26T03:41:12;32.97;;;27.57;;
2039;SDS011;1025;42.686;23.350;2024-02-26T03:43:38;33.90;;;27.37;;
2039;SDS011;1025;42.686;23.350;2024-02-26T03:46:06;36.00;;;26.07;;
2039;SDS011;1025;42.686;23.350;2024-02-26T03:48:36;35.43;;;27.93;;
2039;SDS011;1025;42.686;23.350;2024-02-26T03:51:03;31.17;;;26.20;;
2039;SDS011;1025;42.686;23.350;2024-02-26T03:53:30;31.93;;;26.97;;
2039;SDS011;1025;42.686;23.350;2024-02-26T03:55:58;31.33;;;26.30;;
2039;SDS011;1025;42.686;23.350;2024-02-26T03:58:29;33.63;;;24.90;;
2039;SDS011;1025;42.686;23.350;2024-02-26T04:00:55;32.87;;;25.47;;
2039;SDS011;1025;42.686;23.350;2024-02-26T04:03:24;33.00;;;25.73;;
2039;SDS011;1025;42.686;23.350;2024-02-26T04:05:53;30.30;;;25.60;;
2039;SDS011;1025;42.686;23.350;2024-02-26T04:08:20;30.60;;;26.73;;
2039;SDS011;1025;42.686;23.350;2024-02-26T04:10:47;33.07;;;27.10;;
2039;SDS011;1025;42.686;23.350;2024-02-26T04:13:17;33.80;;;27.47;;
2039;SDS011;1025;42.686;23.350;2024-02-26T04:15:43;28.77;;;24.37;;
2039;SDS011;1025;42.686;23.350;2024-02-26T04:18:10;27.93;;;23.97;;
2039;SDS011;1025;42.686;23.350;2024-02-26T04:20:36;30.57;;;25.87;;
2039;SDS011;1025;42.686;23.350;2024-02-26T04:23:04;36.00;;;27.10;;
2039;SDS011;1025;42.686;23.350;2024-02-26T04:25:31;30.40;;;26.53;;
2039;SDS011;1025;42.686;23.350;2024-02-26T04:27:57;35.63;;;28.30;;
2039;SDS011;1025;42.686;23.350;2024-02-26T04:30:24;45.37;;;27.37;;
2039;SDS011;1025;42.686;23.350;2024-02-26T04:32:50;31.50;;;27.67;;
2039;SDS011;1025;42.686;23.350;2024-02-26T04:35:17;32.00;;;27.40;;
2039;SDS011;1025;42.686;23.350;2024-02-26T04:37:43;33.10;;;26.83;;
2039;SDS011;1025;42.686;23.350;2024-02-26T04:40:12;35.27;;;27.63;;
2039;SDS011;1025;42.686;23.350;2024-02-26T04:42:40;30.80;;;27.50;;
2039;SDS011;1025;42.686;23.350;2024-02-26T04:45:10;33.03;;;26.50;;
2039;SDS011;1025;42.686;23.350;2024-02-26T04:47:36;32.33;;;28.90;;
2039;SDS011;1025;42.686;23.350;2024-02-26T04:50:05;34.83;;;25.53;;
2039;SDS011;1025;42.686;23.350;2024-02-26T04:52:32;31.90;;;27.37;;
2039;SDS011;1025;42.686;23.350;2024-02-26T04:54:58;35.53;;;28.33;;
2039;SDS011;1025;42.686;23.350;2024-02-26T04:57:27;34.77;;;27.63;;
2039;SDS011;1025;42.686;23.350;2024-02-26T05:00:01;32.97;;;28.20;;
2039;SDS011;1025;42.686;23.350;2024-02-26T05:02:31;33.43;;;27.87;;
2039;SDS011;1025;42.686;23.350;2024-02-26T05:05:03;31.23;;;27.17;;
2039;SDS011;1025;42.686;23.350;2024-02-26T05:07:29;33.17;;;28.53;;
2039;SDS011;1025;42.686;23.350;2024-02-26T05:09:57;32.60;;;27.90;;
2039;SDS011;1025;42.686;23.350;2024-02-26T05:12:24;36.40;;;30.50;;
2039;SDS011;1025;42.686;23.350;2024-02-26T05:14:52;33.63;;;29.53;;
2039;SDS011;1025;42.686;23.350;2024-02-26T05:17:19;33.77;;;29.97;;
2039;SDS011;1025;42.686;23.350;2024-02-26T05:19:45;36.00;;;27.83;;
2039;SDS011;1025;42.686;23.350;2024-02-26T05:22:12;35.10;;;27.67;;
2039;SDS011;1025;42.686;23.350;2024-02-26T05:24:39;29.80;;;26.67;;
2039;SDS011;1025;42.686;23.350;2024-02-26T05:27:05;30.50;;;27.20;;
2039;SDS011;1025;42.686;23.350;2024-02-26T05:29:34;46.27;;;29.30;;
2039;SDS011;1025;42.686;23.350;2024-02-26T05:32:02;35.83;;;30.27;;
2039;SDS011;1025;42.686;23.350;2024-02-26T05:34:29;36.13;;;27.97;;
2039;SDS011;1025;42.686;23.350;2024-02-26T05:36:58;43.93;;;30.20;;
2039;SDS011;1025;42.686;23.350;2024-02-26T05:39:25;32.80;;;29.50;;
2039;SDS011;1025;42.686;23.350;2024-02-26T05:41:50;34.87;;;28.80;;
2039;SDS011;1025;42.686;23.350;2024-02-26T05:44:17;33.33;;;28.50;;
2039;SDS011;1025;42.686;23.350;2024-02-26T05:46:43;34.60;;;29.03;;
2039;SDS011;1025;42.686;23.350;2024-02-26T05:49:11;34.30;;;28.57;;
2039;SDS011;1025;42.686;23.350;2024-02-26T05:51:38;37.77;;;30.60;;
2039;SDS011;1025;42.686;23.350;2024-02-26T05:54:04;36.93;;;29.10;;
2039;SDS011;1025;42.686;23.350;2024-02-26T05:56:31;35.43;;;30.70;;
2039;SDS011;1025;42.686;23.350;2024-02-26T05:58:59;35.93;;;29.87;;
2039;SDS011;1025;42.686;23.350;2024-02-26T06:01:35;44.20;;;28.63;;
2039;SDS011;1025;42.686;23.350;2024-02-26T06:04:06;39.63;;;28.23;;
2039;SDS011;1025;42.686;23.350;2024-02-26T06:06:34;34.33;;;29.87;;
2039;SDS011;1025;42.686;23.350;2024-02-26T06:09:00;41.83;;;31.97;;
2039;SDS011;1025;42.686;23.350;2024-02-26T06:11:30;36.60;;;29.83;;
2039;SDS011;1025;42.686;23.350;2024-02-26T06:13:56;37.97;;;30.30;;
2039;SDS011;1025;42.686;23.350;2024-02-26T06:16:23;38.30;;;27.30;;
2039;SDS011;1025;42.686;23.350;2024-02-26T06:18:52;32.80;;;23.60;;
2039;SDS011;1025;42.686;23.350;2024-02-26T06:21:18;30.53;;;24.60;;
2039;SDS011;1025;42.686;23.350;2024-02-26T06:23:48;29.17;;;24.20;;
2039;SDS011;1025;42.686;23.350;2024-02-26T06:26:15;31.07;;;22.87;;
2039;SDS011;1025;42.686;23.350;2024-02-26T06:28:42;28.83;;;23.70;;
2039;SDS011;1025;42.686;23.350;2024-02-26T06:31:10;38.80;;;25.07;;
2039;SDS011;1025;42.686;23.350;2024-02-26T06:33:37;26.00;;;22.30;;
2039;SDS011;1025;42.686;23.350;2024-02-26T06:36:03;27.80;;;21.97;;
2039;SDS011;1025;42.686;23.350;2024-02-26T06:38:32;46.23;;;41.83;;
2039;SDS011;1025;42.686;23.350;2024-02-26T06:41:02;31.63;;;23.60;;
2039;SDS011;1025;42.686;23.350;2024-02-26T06:43:29;29.80;;;24.30;;
2039;SDS011;1025;42.686;23.350;2024-02-26T06:45:55;27.27;;;22.47;;
2039;SDS011;1025;42.686;23.350;2024-02-26T06:48:24;33.60;;;21.47;;
2039;SDS011;1025;42.686;23.350;2024-02-26T06:50:51;25.13;;;22.50;;
2039;SDS011;1025;42.686;23.350;2024-02-26T06:53:17;28.30;;;23.10;;
2039;SDS011;1025;42.686;23.350;2024-02-26T06:55:46;24.50;;;22.10;;
2039;SDS011;1025;42.686;23.350;2024-02-26T06:58:16;35.10;;;25.37;;
2039;SDS011;1025;42.686;23.350;2024-02-26T07:00:42;29.30;;;23.17;;
2039;SDS011;1025;42.686;23.350;2024-02-26T07:03:11;27.63;;;22.40;;
2039;SDS011;1025;42.686;23.350;2024-02-26T07:05:39;26.00;;;23.10;;
2039;SDS011;1025;42.686;23.350;2024-02-26T07:08:05;29.13;;;24.53;;
2039;SDS011;1025;42.686;23.350;2024-02-26T07:10:34;29.83;;;23.90;;
2039;SDS011;1025;42.686;23.350;2024-02-26T07:13:01;27.83;;;25.00;;
2039;SDS011;1025;42.686;23.350;2024-02-26T07:15:29;26.90;;;21.23;;
2039;SDS011;1025;42.686;23.350;2024-02-26T07:17:57;27.90;;;22.13;;
2039;SDS011;1025;42.686;23.350;2024-02-26T07:20:28;26.63;;;21.77;;
2039;SDS011;1025;42.686;23.350;2024-02-26T07:22:54;24.17;;;21.67;;
2039;SDS011;1025;42.686;23.350;2024-02-26T07:25:23;26.80;;;20.63;;
2039;SDS011;1025;42.686;23.350;2024-02-26T07:27:49;29.07;;;22.10;;
2039;SDS011;1025;42.686;23.350;2024-02-26T07:30:18;28.27;;;22.50;;
2039;SDS011;1025;42.686;23.350;2024-02-26T07:32:46;38.03;;;34.00;;
2039;SDS011;1025;42.686;23.350;2024-02-26T07:35:12;34.57;;;30.50;;
2039;SDS011;1025;42.686;23.350;2024-02-26T07:37:42;57.53;;;46.80;;
2039;SDS011;1025;42.686;23.350;2024-02-26T07:40:08;58.53;;;52.20;;
2039;SDS011;1025;42.686;23.350;2024-02-26T07:42:35;55.40;;;50.00;;
2039;SDS011;1025;42.686;23.350;2024-02-26T07:45:03;54.00;;;48.23;;
2039;SDS011;1025;42.686;23.350;2024-02-26T07:47:31;50.50;;;45.50;;
2039;SDS011;1025;42.686;23.350;2024-02-26T07:50:02;48.27;;;43.20;;
2039;SDS011;1025;42.686;23.350;2024-02-26T07:52:28;37.53;;;33.80;;
2039;SDS011;1025;42.686;23.350;2024-02-26T07:54:57;30.40;;;25.73;;
2039;SDS011;1025;42.686;23.350;2024-02-26T07:57:23;35.03;;;28.90;;
2039;SDS011;1025;42.686;23.350;2024-02-26T07:59:50;38.67;;;28.40;;
2039;SDS011;1025;42.686;23.350;2024-02-26T08:02:19;33.70;;;29.23;;
2039;SDS011;1025;42.686;23.350;2024-02-26T08:04:46;33.13;;;28.80;;
2039;SDS011;1025;42.686;23.350;2024-02-26T08:07:15;29.47;;;26.20;;
2039;SDS011;1025;42.686;23.350;2024-02-26T08:09:41;32.70;;;24.47;;
2039;SDS011;1025;42.686;23.350;2024-02-26T08:12:10;23.40;;;21.00;;
2039;SDS011;1025;42.686;23.350;2024-02-26T08:14:37;29.40;;;25.10;;
2039;SDS011;1025;42.686;23.350;2024-02-26T08:17:03;25.20;;;22.70;;
2039;SDS011;1025;42.686;23.350;2024-02-26T08:19:32;29.80;;;23.17;;
2039;SDS011;1025;42.686;23.350;2024-02-26T08:22:03;27.53;;;24.60;;
2039;SDS011;1025;42.686;23.350;2024-02-26T08:24:30;28.30;;;21.67;;
2039;SDS011;1025;42.686;23.350;2024-02-26T08:26:57;27.80;;;21.57;;
2039;SDS011;1025;42.686;23.350;2024-02-26T08:29:26;21.67;;;19.67;;
2039;SDS011;1025;42.686;23.350;2024-02-26T08:31:52;25.90;;;21.07;;
2039;SDS011;1025;42.686;23.350;2024-02-26T08:34:19;23.60;;;21.10;;
2039;SDS011;1025;42.686;23.350;2024-02-26T08:36:47;25.10;;;21.20;;
2039;SDS011;1025;42.686;23.350;2024-02-26T08:39:16;24.03;;;21.20;;
2039;SDS011;1025;42.686;23.350;2024-02-26T08:41:44;25.10;;;22.50;;
2039;SDS011;1025;42.686;23.350;2024-02-26T08:44:10;23.90;;;21.30;;
2039;SDS011;1025;42.686;23.350;2024-02-26T08:46:39;26.37;;;21.63;;
2039;SDS011;1025;42.686;23.350;2024-02-26T08:49:05;23.33;;;20.50;;
2039;SDS011;1025;42.686;23.350;2024-02-26T08:51:32;29.80;;;23.30;;
2039;SDS011;1025;42.686;23.350;2024-02-26T08:54:00;28.43;;;24.70;;
2039;SDS011;1025;42.686;23.350;2024-02-26T08:56:29;24.17;;;21.53;;
2039;SDS011;1025;42.686;23.350;2024-02-26T08:58:57;20.33;;;18.27;;
2039;SDS011;1025;42.686;23.350;2024-02-26T09:01:24;19.83;;;17.63;;
2039;SDS011;1025;42.686;23.350;2024-02-26T09:03:53;19.57;;;17.57;;
2039;SDS011;1025;42.686;23.350;2024-02-26T09:06:19;18.00;;;16.00;;
2039;SDS011;1025;42.686;23.350;2024-02-26T09:08:46;15.20;;;13.63;;
2039;SDS011;1025;42.686;23.350;2024-02-26T09:11:14;20.57;;;15.97;;
2039;SDS011;1025;42.686;23.350;2024-02-26T09:13:41;13.50;;;11.20;;
2039;SDS011;1025;42.686;23.350;2024-02-26T09:16:09;13.63;;;10.00;;
2039;SDS011;1025;42.686;23.350;2024-02-26T09:18:37;10.20;;;9.20;;
2039;SDS011;1025;42.686;23.350;2024-02-26T09:21:04;10.10;;;8.50;;
2039;SDS011;1025;42.686;23.350;2024-02-26T09:23:30;11.00;;;8.80;;
2039;SDS011;1025;42.686;23.350;2024-02-26T09:26:00;10.50;;;7.73;;
2039;SDS011;1025;42.686;23.350;2024-02-26T09:28:26;12.43;;;8.73;;
2039;SDS011;1025;42.686;23.350;2024-02-26T09:30:53;8.80;;;6.97;;
2039;SDS011;1025;42.686;23.350;2024-02-26T09:33:23;8.07;;;6.63;;
2039;SDS011;1025;42.686;23.350;2024-02-26T09:35:49;8.40;;;6.73;;
2039;SDS011;1025;42.686;23.350;2024-02-26T09:38:15;9.27;;;6.83;;
2039;SDS011;1025;42.686;23.350;2024-02-26T09:40:44;9.17;;;8.03;;
2039;SDS011;1025;42.686;23.350;2024-02-26T09:43:12;8.00;;;7.20;;
2039;SDS011;1025;42.686;23.350;2024-02-26T09:45:40;6.50;;;5.90;;
2039;SDS011;1025;42.686;23.350;2024-02-26T09:48:09;11.47;;;7.57;;
2039;SDS011;1025;42.686;23.350;2024-02-26T09:50:39;7.60;;;6.67;;
2039;SDS011;1025;42.686;23.350;2024-02-26T09:53:07;7.93;;;6.13;;
2039;SDS011;1025;42.686;23.350;2024-02-26T09:55:37;9.13;;;5.67;;
2039;SDS011;1025;42.686;23.350;2024-02-26T09:58:04;11.20;;;5.80;;
2039;SDS011;1025;42.686;23.350;2024-02-26T10:00:31;7.47;;;6.67;;
2039;SDS011;1025;42.686;23.350;2024-02-26T10:03:01;10.97;;;6.77;;
2039;SDS011;1025;42.686;23.350;2024-02-26T10:05:28;14.47;;;6.53;;
2039;SDS011;1025;42.686;23.350;2024-02-26T10:07:56;5.73;;;5.23;;
2039;SDS011;1025;42.686;23.350;2024-02-26T10:10:28;7.67;;;6.03;;
2039;SDS011;1025;42.686;23.350;2024-02-26T10:12:55;6.27;;;5.67;;
2039;SDS011;1025;42.686;23.350;2024-02-26T10:15:23;6.97;;;6.27;;
2039;SDS011;1025;42.686;23.350;2024-02-26T10:17:50;7.83;;;5.53;;
2039;SDS011;1025;42.686;23.350;2024-02-26T10:20:17;6.80;;;5.43;;
2039;SDS011;1025;42.686;23.350;2024-02-26T10:22:49;9.47;;;6.50;;
2039;SDS011;1025;42.686;23.350;2024-02-26T10:25:17;7.53;;;5.67;;
2039;SDS011;1025;42.686;23.350;2024-02-26T10:27:44;6.33;;;5.73;;
2039;SDS011;1025;42.686;23.350;2024-02-26T10:30:20;6.93;;;6.13;;
2039;SDS011;1025;42.686;23.350;2024-02-26T10:32:49;6.13;;;5.47;;
2039;SDS011;1025;42.686;23.350;2024-02-26T10:35:16;6.70;;;5.20;;
2039;SDS011;1025;42.686;23.350;2024-02-26T10:37:43;5.67;;;4.47;;
2039;SDS011;1025;42.686;23.350;2024-02-26T10:40:12;6.53;;;5.77;;
2039;SDS011;1025;42.686;23.350;2024-02-26T10:42:40;6.93;;;6.17;;
2039;SDS011;1025;42.686;23.350;2024-02-26T10:45:07;6.30;;;5.77;;
2039;SDS011;1025;42.686;23.350;2024-02-26T10:47:36;5.37;;;4.87;;
2039;SDS011;1025;42.686;23.350;2024-02-26T10:50:05;7.10;;;5.70;;
2039;SDS011;1025;42.686;23.350;2024-02-26T10:52:33;5.97;;;5.43;;
2039;SDS011;1025;42.686;23.350;2024-02-26T10:55:00;6.80;;;6.10;;
2039;SDS011;1025;42.686;23.350;2024-02-26T10:57:31;5.77;;;5.03;;
2039;SDS011;1025;42.686;23.350;2024-02-26T11:00:00;7.20;;;5.70;;
2039;SDS011;1025;42.686;23.350;2024-02-26T11:02:29;8.13;;;6.13;;
2039;SDS011;1025;42.686;23.350;2024-02-26T11:04:57;5.70;;;5.10;;
2039;SDS011;1025;42.686;23.350;2024-02-26T11:07:26;7.87;;;5.43;;
2039;SDS011;1025;42.686;23.350;2024-02-26T11:09:54;5.80;;;5.30;;
2039;SDS011;1025;42.686;23.350;2024-02-26T11:12:21;11.77;;;6.30;;
2039;SDS011;1025;42.686;23.350;2024-02-26T11:14:51;5.00;;;4.50;;
2039;SDS011;1025;42.686;23.350;2024-02-26T11:17:21;5.53;;;4.93;;
2039;SDS011;1025;42.686;23.350;2024-02-26T11:19:48;6.80;;;5.33;;
2039;SDS011;1025;42.686;23.350;2024-02-26T11:22:18;9.20;;;5.50;;
2039;SDS011;1025;42.686;23.350;2024-02-26T11:24:47;11.90;;;5.30;;
2039;SDS011;1025;42.686;23.350;2024-02-26T11:27:13;7.90;;;5.40;;
2039;SDS011;1025;42.686;23.350;2024-02-26T11:29:44;5.20;;;4.70;;
2039;SDS011;1025;42.686;23.350;2024-02-26T11:32:13;5.53;;;4.23;;
2039;SDS011;1025;42.686;23.350;2024-02-26T11:34:41;5.70;;;5.20;;
2039;SDS011;1025;42.686;23.350;2024-02-26T11:37:11;5.50;;;5.00;;
2039;SDS011;1025;42.686;23.350;2024-02-26T11:39:39;5.50;;;5.00;;
2039;SDS011;1025;42.686;23.350;2024-02-26T11:42:06;8.03;;;6.57;;
2039;SDS011;1025;42.686;23.350;2024-02-26T11:44:35;6.37;;;4.80;;
2039;SDS011;1025;42.686;23.350;2024-02-26T11:47:09;5.87;;;5.27;;
2039;SDS011;1025;42.686;23.350;2024-02-26T11:49:36;5.83;;;4.80;;
2039;SDS011;1025;42.686;23.350;2024-02-26T11:52:06;6.70;;;5.17;;
2039;SDS011;1025;42.686;23.350;2024-02-26T11:54:43;6.00;;;5.30;;
2039;SDS011;1025;42.686;23.350;2024-02-26T11:57:23;7.33;;;5.30;;
2039;SDS011;1025;42.686;23.350;2024-02-26T11:59:50;6.70;;;6.10;;
2039;SDS011;1025;42.686;23.350;2024-02-26T12:05:14;8.00;;;4.67;;
2039;SDS011;1025;42.686;23.350;2024-02-26T12:07:45;5.27;;;4.27;;
2039;SDS011;1025;42.686;23.350;2024-02-26T12:10:14;7.63;;;4.43;;
2039;SDS011;1025;42.686;23.350;2024-02-26T12:12:41;7.47;;;4.50;;
2039;SDS011;1025;42.686;23.350;2024-02-26T12:15:08;6.17;;;4.90;;
2039;SDS011;1025;42.686;23.350;2024-02-26T12:17:38;8.07;;;4.97;;
2039;SDS011;1025;42.686;23.350;2024-02-26T12:20:08;5.37;;;4.87;;
2039;SDS011;1025;42.686;23.350;2024-02-26T12:22:35;5.37;;;4.87;;
2039;SDS011;1025;42.686;23.350;2024-02-26T12:25:08;4.37;;;3.97;;
2039;SDS011;1025;42.686;23.350;2024-02-26T12:27:34;5.67;;;5.17;;
2039;SDS011;1025;42.686;23.350;2024-02-26T12:30:01;5.83;;;4.07;;
2039;SDS011;1025;42.686;23.350;2024-02-26T12:32:28;6.70;;;4.30;;
2039;SDS011;1025;42.686;23.350;2024-02-26T12:34:54;7.30;;;4.90;;
2039;SDS011;1025;42.686;23.350;2024-02-26T12:37:23;4.67;;;3.97;;
2039;SDS011;1025;42.686;23.350;2024-02-26T12:39:50;6.07;;;5.20;;
2039;SDS011;1025;42.686;23.350;2024-02-26T12:42:20;8.13;;;4.80;;
2039;SDS011;1025;42.686;23.350;2024-02-26T12:44:46;5.57;;;3.57;;
2039;SDS011;1025;42.686;23.350;2024-02-26T12:47:13;7.17;;;4.33;;
2039;SDS011;1025;42.686;23.350;2024-02-26T12:49:43;4.87;;;4.23;;
2039;SDS011;1025;42.686;23.350;2024-02-26T12:52:12;4.57;;;3.57;;
2039;SDS011;1025;42.686;23.350;2024-02-26T12:54:39;7.00;;;3.90;;
2039;SDS011;1025;42.686;23.350;2024-02-26T12:57:09;6.40;;;4.23;;
2039;SDS011;1025;42.686;23.350;2024-02-26T12:59:39;5.87;;;4.10;;
2039;SDS011;1025;42.686;23.350;2024-02-26T13:02:05;5.73;;;4.50;;
2039;SDS011;1025;42.686;23.350;2024-02-26T13:04:32;4.33;;;3.90;;
2039;SDS011;1025;42.686;23.350;2024-02-26T13:07:02;6.70;;;3.67;;
2039;SDS011;1025;42.686;23.350;2024-02-26T13:09:31;4.40;;;3.63;;
2039;SDS011;1025;42.686;23.350;2024-02-26T13:11:58;4.80;;;4.30;;
2039;SDS011;1025;42.686;23.350;2024-02-26T13:14:27;5.83;;;3.90;;
2039;SDS011;1025;42.686;23.350;2024-02-26T13:17:00;3.70;;;3.40;;
2039;SDS011;1025;42.686;23.350;2024-02-26T13:19:27;7.20;;;4.57;;
2039;SDS011;1025;42.686;23.350;2024-02-26T13:21:55;4.10;;;3.70;;
2039;SDS011;1025;42.686;23.350;2024-02-26T13:24:24;4.53;;;4.13;;
2039;SDS011;1025;42.686;23.350;2024-02-26T13:26:53;6.60;;;4.83;;
2039;SDS011;1025;42.686;23.350;2024-02-26T13:29:20;6.80;;;4.03;;
2039;SDS011;1025;42.686;23.350;2024-02-26T13:31:49;4.03;;;3.73;;
2039;SDS011;1025;42.686;23.350;2024-02-26T13:34:28;8.93;;;4.70;;
2039;SDS011;1025;42.686;23.350;2024-02-26T13:36:56;3.60;;;3.30;;
2039;SDS011;1025;42.686;23.350;2024-02-26T13:39:22;4.40;;;4.00;;
2039;SDS011;1025;42.686;23.350;2024-02-26T13:41:51;5.23;;;3.50;;
2039;SDS011;1025;42.686;23.350;2024-02-26T13:44:19;4.23;;;3.83;;
2039;SDS011;1025;42.686;23.350;2024-02-26T13:46:45;9.30;;;4.07;;
2039;SDS011;1025;42.686;23.350;2024-02-26T13:49:14;3.37;;;3.07;;
2039;SDS011;1025;42.686;23.350;2024-02-26T13:51:44;4.30;;;3.80;;
2039;SDS011;1025;42.686;23.350;2024-02-26T13:54:11;4.17;;;3.80;;
2039;SDS011;1025;42.686;23.350;2024-02-26T13:56:38;8.63;;;5.53;;
2039;SDS011;1025;42.686;23.350;2024-02-26T13:59:07;4.10;;;3.70;;
2039;SDS011;1025;42.686;23.350;2024-02-26T14:01:34;5.13;;;4.10;;
2039;SDS011;1025;42.686;23.350;2024-02-26T14:04:00;4.70;;;4.23;;
2039;SDS011;1025;42.686;23.350;2024-02-26T14:06:29;4.00;;;3.47;;
2039;SDS011;1025;42.686;23.350;2024-02-26T14:09:00;4.43;;;3.37;;
2039;SDS011;1025;42.686;23.350;2024-02-26T14:11:29;8.43;;;4.17;;
2039;SDS011;1025;42.686;23.350;2024-02-26T14:13:56;5.43;;;4.93;;
2039;SDS011;1025;42.686;23.350;2024-02-26T14:16:24;4.87;;;4.03;;
2039;SDS011;1025;42.686;23.350;2024-02-26T14:18:51;4.57;;;4.13;;
2039;SDS011;1025;42.686;23.350;2024-02-26T14:21:17;4.77;;;4.23;;
2039;SDS011;1025;42.686;23.350;2024-02-26T14:23:46;9.03;;;4.07;;
2039;SDS011;1025;42.686;23.350;2024-02-26T14:26:16;9.60;;;4.33;;
2039;SDS011;1025;42.686;23.350;2024-02-26T14:28:42;6.43;;;4.33;;
2039;SDS011;1025;42.686;23.350;2024-02-26T14:31:09;4.67;;;4.27;;
2039;SDS011;1025;42.686;23.350;2024-02-26T14:33:38;5.73;;;3.73;;
2039;SDS011;1025;42.686;23.350;2024-02-26T14:36:06;5.67;;;3.30;;
2039;SDS011;1025;42.686;23.350;2024-02-26T14:38:32;4.10;;;3.57;;
2039;SDS011;1025;42.686;23.350;2024-02-26T14:41:01;4.90;;;4.40;;
2039;SDS011;1025;42.686;23.350;2024-02-26T14:43:29;4.27;;;3.60;;
2039;SDS011;1025;42.686;23.350;2024-02-26T14:45:57;3.43;;;3.17;;
2039;SDS011;1025;42.686;23.350;2024-02-26T14:48:25;3.10;;;2.80;;
2039;SDS011;1025;42.686;23.350;2024-02-26T14:50:53;6.27;;;3.53;;